Terra Ceia Island, Florida
Current Conditions -  °F | °C
As of 11:53 PM on Sunday 21 Dec 2014 (Local Time) from KSRQ Reporting Station
Light Rain Light Rain  
Wind Chill: 68°   Ceiling: Unl
Heat Index: 68°   Visibility: 10mi
Dew Point: 67°   Wind: 6mph
Humidity: 96%   Direction: 160°SSE
Pressure: 30.02"   Gusts: NA
Location:  27.5722°N, 82.5932°W
Report Text: KSRQ 220453Z AUTO 16005KT 10SM -RA FEW060 SCT090 20/19 A3002 RMK AO2 RAB52 SLP165 P0000 T02000194 402610150
Loading
Personal Weather Stations






























Interactive Weather Map New forecast layout! Learn more

10-Day Weather Forecast

Advertisements
Track Severe Weather on mobile